createdAt,value
2018-02-06T04:40:07.828Z,34.53
2018-02-06T04:42:35.519Z,21.25
2018-02-06T04:45:03.267Z,23.33
2018-02-06T04:47:30.966Z,17.90
2018-02-06T04:49:59.414Z,22.70
2018-02-06T04:52:27.929Z,23.92
2018-02-06T04:54:56.405Z,24.52
2018-02-06T04:57:24.883Z,24.20
2018-02-06T04:59:52.627Z,21.95
2018-02-06T05:02:20.334Z,21.10
2018-02-06T05:04:48.027Z,19.05
2018-02-06T05:07:15.773Z,23.38
2018-02-06T05:09:43.455Z,24.77
2018-02-06T05:12:11.158Z,45.47
2018-02-06T05:14:39.674Z,33.50
2018-02-06T05:17:07.379Z,26.85
2018-02-06T05:19:35.082Z,24.30
2018-02-06T05:22:02.811Z,21.58
2018-02-06T05:24:30.499Z,28.98
2018-02-06T05:26:58.975Z,23.85
2018-02-06T05:29:27.496Z,20.33
2018-02-06T05:31:55.216Z,21.17
2018-02-06T05:34:23.690Z,22.08
2018-02-06T05:36:52.143Z,22.35
2018-02-06T05:39:19.827Z,20.52
2018-02-06T05:41:48.324Z,20.98
2018-02-06T05:44:17.315Z,25.33
2018-02-06T05:46:45.043Z,24.20
2018-02-06T05:49:12.784Z,24.20
2018-02-06T05:51:40.492Z,22.00
2018-02-06T05:54:08.945Z,20.42
2018-02-06T05:56:36.709Z,21.27
2018-02-06T05:59:04.448Z,17.50
2018-02-06T06:01:32.136Z,24.70
2018-02-06T06:03:59.875Z,17.87
2018-02-06T06:06:27.571Z,26.08
2018-02-06T06:08:55.274Z,25.35
2018-02-06T06:11:23.470Z,22.80
2018-02-06T06:13:52.770Z,25.17
2018-02-06T06:16:21.263Z,24.00
2018-02-06T06:18:49.000Z,20.98
2018-02-06T06:21:16.687Z,38.70
2018-02-06T06:23:44.375Z,43.08
2018-02-06T06:26:12.971Z,43.33
2018-02-06T06:28:40.692Z,38.05
2018-02-06T06:31:08.398Z,26.80
2018-02-06T06:33:36.162Z,225.27
2018-02-06T06:36:03.875Z,81.72
2018-02-06T06:38:31.582Z,37.65
2018-02-06T06:40:59.395Z,27.13
2018-02-06T06:43:27.261Z,27.52
2018-02-06T06:45:55.167Z,59.53
2018-02-06T06:48:23.708Z,71.62
2018-02-06T06:50:51.573Z,52.88
2018-02-06T06:53:19.540Z,27.08
2018-02-06T06:55:47.358Z,28.12
2018-02-06T06:58:15.169Z,33.25
2018-02-06T07:00:43.034Z,32.83
2018-02-06T07:03:10.901Z,30.50
2018-02-06T07:05:38.663Z,44.83
2018-02-06T07:08:06.527Z,37.45
2018-02-06T07:10:34.244Z,28.08
2018-02-06T07:13:02.156Z,29.23
2018-02-06T07:15:30.023Z,24.52
2018-02-06T07:17:57.886Z,28.02
2018-02-06T07:20:26.475Z,34.03
2018-02-06T07:22:54.436Z,21.02
2018-02-06T07:25:22.199Z,26.95
2018-02-06T07:27:49.963Z,37.88
2018-02-06T07:30:17.931Z,29.05
2018-02-06T07:32:45.692Z,31.90
2018-02-06T07:35:13.456Z,31.60
2018-02-06T07:37:41.424Z,30.95
2018-02-06T07:40:09.290Z,27.92
2018-02-06T07:42:37.053Z,32.67
2018-02-06T07:45:04.918Z,24.37
2018-02-06T07:47:32.683Z,37.20
2018-02-06T07:50:00.546Z,45.60
2018-02-06T07:52:28.351Z,57.83
2018-02-06T07:54:56.823Z,34.03
2018-02-06T07:57:25.279Z,38.20
2018-02-06T07:59:52.999Z,49.30
2018-02-06T08:02:20.691Z,47.47
2018-02-06T08:04:48.375Z,64.68
2018-02-06T08:07:16.128Z,66.55
2018-02-06T08:09:43.850Z,67.50
2018-02-06T08:12:11.539Z,51.95
2018-02-06T08:14:39.277Z,45.17
2018-02-06T08:17:06.960Z,42.50
2018-02-06T08:19:34.703Z,41.95
2018-02-06T08:22:02.406Z,38.00
2018-02-06T08:24:30.092Z,35.70
2018-02-06T08:26:58.832Z,39.55
2018-02-06T08:29:27.298Z,37.35
2018-02-06T08:31:54.975Z,44.25
2018-02-06T08:34:22.836Z,31.58
2018-02-06T08:36:50.551Z,30.55
2018-02-06T08:39:18.237Z,39.33
2018-02-06T08:41:45.967Z,37.40
2018-02-06T08:44:14.489Z,30.50
2018-02-06T08:46:42.183Z,33.88
2018-02-06T08:49:09.886Z,34.85
2018-02-06T08:51:37.595Z,39.55
2018-02-06T08:54:05.299Z,28.25
2018-02-06T08:56:33.011Z,32.00
2018-02-06T08:59:01.491Z,32.00
2018-02-06T09:01:29.200Z,35.35
2018-02-06T09:03:57.703Z,36.63
2018-02-06T09:06:25.406Z,37.92
2018-02-06T09:08:53.095Z,37.63
2018-02-06T09:11:21.574Z,43.53
2018-02-06T09:13:50.028Z,33.45
2018-02-06T09:16:17.755Z,34.53
2018-02-06T09:18:45.460Z,39.45
2018-02-06T09:21:13.147Z,42.35
2018-02-06T09:23:41.675Z,33.33
2018-02-06T09:26:09.358Z,32.78
2018-02-06T09:28:37.845Z,29.65
2018-02-06T09:31:05.671Z,36.42
2018-02-06T09:33:33.360Z,38.38
2018-02-06T09:36:01.063Z,41.35
2018-02-06T09:38:28.802Z,39.85
2018-02-06T09:40:57.267Z,38.70
2018-02-06T09:43:24.991Z,39.80
2018-02-06T09:45:52.667Z,34.15
2018-02-06T09:48:21.123Z,35.42
2018-02-06T09:50:48.875Z,39.50
2018-02-06T09:53:16.617Z,40.47
2018-02-06T09:55:45.101Z,38.25
2018-02-06T09:58:12.836Z,43.67
2018-02-06T10:00:40.523Z,47.00
2018-02-06T10:03:08.972Z,38.97
2018-02-06T10:05:36.727Z,46.35
2018-02-06T10:08:04.422Z,43.67
2018-02-06T10:10:32.144Z,44.72
2018-02-06T10:12:59.876Z,40.63
2018-02-06T10:15:27.600Z,42.72
2018-02-06T10:17:56.096Z,40.45
2018-02-06T10:20:24.571Z,49.70
2018-02-06T10:22:53.030Z,42.75
2018-02-06T10:25:20.731Z,48.85
2018-02-06T10:27:48.429Z,39.95
2018-02-06T10:30:16.111Z,39.65
2018-02-06T10:32:43.819Z,39.80
2018-02-06T10:35:11.498Z,40.35
2018-02-06T10:37:39.207Z,34.80
2018-02-06T10:40:07.757Z,39.38
2018-02-06T10:42:35.762Z,43.50
2018-02-06T10:45:04.951Z,33.45
2018-02-06T10:47:32.684Z,33.00
2018-02-06T10:50:00.506Z,34.80
2018-02-06T10:52:28.415Z,35.90
2018-02-06T10:54:56.280Z,39.72
2018-02-06T10:57:25.067Z,35.00
2018-02-06T10:59:53.037Z,38.13
2018-02-06T11:02:20.903Z,42.03
2018-02-06T11:04:48.814Z,31.65
2018-02-06T11:07:17.505Z,43.15
2018-02-06T11:09:45.315Z,35.17
2018-02-06T11:12:13.180Z,39.85
2018-02-06T11:14:41.045Z,32.88
2018-02-06T11:17:08.807Z,34.92
2018-02-06T11:19:36.521Z,38.47
2018-02-06T11:22:04.539Z,37.63
2018-02-06T11:24:32.302Z,29.75
2018-02-06T11:27:00.171Z,29.87
2018-02-06T11:29:28.138Z,30.37
2018-02-06T11:31:55.897Z,30.92
2018-02-06T11:34:23.763Z,34.78
2018-02-06T11:36:51.629Z,31.70
2018-02-06T11:39:19.391Z,33.13
2018-02-06T11:41:47.258Z,31.85
2018-02-06T11:44:15.129Z,29.83
2018-02-06T11:46:43.093Z,30.83
2018-02-06T11:49:11.059Z,27.13
2018-02-06T11:51:38.923Z,30.55
2018-02-06T11:54:06.658Z,29.40
2018-02-06T11:56:34.449Z,30.52
2018-02-06T11:59:02.212Z,24.37
2018-02-06T12:01:30.078Z,30.20
2018-02-06T12:03:57.942Z,28.17
2018-02-06T12:06:25.650Z,26.95
2018-02-06T12:08:54.389Z,27.27
2018-02-06T12:11:22.254Z,27.67
2018-02-06T12:13:50.058Z,30.30
2018-02-06T12:16:18.805Z,31.05
2018-02-06T12:18:46.567Z,28.67
2018-02-06T12:21:14.432Z,30.50
2018-02-06T12:23:42.298Z,29.95
2018-02-06T12:26:10.266Z,29.33
2018-02-06T12:28:38.130Z,26.77
2018-02-06T12:31:05.894Z,41.35
2018-02-06T12:33:33.760Z,39.47
2018-02-06T12:36:01.523Z,38.15
2018-02-06T12:38:29.284Z,35.88
2018-02-06T12:40:57.150Z,29.50
2018-02-06T12:43:24.914Z,33.72
2018-02-06T12:45:52.681Z,28.87
2018-02-06T12:48:20.478Z,33.97
2018-02-06T12:50:49.019Z,29.50
2018-02-06T12:53:16.783Z,30.42
2018-02-06T12:55:44.648Z,43.47
2018-02-06T12:58:12.411Z,26.55
2018-02-06T13:00:40.184Z,30.67
2018-02-06T13:03:08.103Z,31.30
2018-02-06T13:05:36.621Z,33.33
2018-02-06T13:08:04.486Z,30.73
2018-02-06T13:10:33.211Z,30.90
2018-02-06T13:13:01.753Z,27.75
2018-02-06T13:15:29.618Z,33.08
2018-02-06T13:17:57.380Z,28.38
2018-02-06T13:20:25.272Z,30.85
2018-02-06T13:22:53.112Z,28.77
2018-02-06T13:25:20.876Z,32.90
2018-02-06T13:27:48.772Z,32.33
2018-02-06T13:30:17.322Z,34.75
2018-02-06T13:32:45.187Z,40.55
2018-02-06T13:35:12.863Z,31.45
2018-02-06T13:37:40.557Z,30.27
2018-02-06T13:40:09.090Z,30.37
2018-02-06T13:42:36.854Z,31.23
2018-02-06T13:45:04.719Z,35.95
2018-02-06T13:47:32.482Z,29.80
2018-02-06T13:50:00.245Z,29.45
2018-02-06T13:52:28.109Z,38.88
2018-02-06T13:54:55.975Z,42.65
2018-02-06T13:57:24.659Z,32.60
2018-02-06T13:59:52.426Z,33.15
2018-02-06T14:02:20.288Z,33.38
2018-02-06T14:04:48.052Z,36.50
2018-02-06T14:07:15.917Z,34.95
2018-02-06T14:09:43.679Z,34.88
2018-02-06T14:12:11.551Z,30.00
2018-02-06T14:14:41.421Z,35.60
2018-02-06T14:17:11.311Z,40.88
2018-02-06T14:19:39.914Z,37.70
2018-02-06T14:22:07.716Z,39.25
2018-02-06T14:24:35.479Z,37.38
2018-02-06T14:27:03.549Z,39.42
2018-02-06T14:29:31.414Z,48.33
2018-02-06T14:31:59.177Z,47.03
2018-02-06T14:34:27.044Z,41.90
2018-02-06T14:36:54.907Z,39.90
2018-02-06T14:39:22.774Z,38.80
2018-02-06T14:41:50.641Z,40.40
2018-02-06T14:44:18.504Z,41.47
2018-02-06T14:46:46.369Z,50.35
2018-02-06T14:49:14.234Z,47.38
2018-02-06T14:51:41.998Z,49.58
2018-02-06T14:54:09.866Z,46.55
2018-02-06T14:56:37.730Z,47.08
2018-02-06T14:59:05.493Z,53.60
2018-02-06T15:01:33.195Z,46.90
2018-02-06T15:04:01.844Z,61.25
2018-02-06T15:06:29.704Z,46.72
2018-02-06T15:08:57.571Z,43.58
2018-02-06T15:11:25.431Z,50.20
2018-02-06T15:13:53.297Z,46.60
2018-02-06T15:16:21.162Z,50.30
2018-02-06T15:18:48.925Z,56.65
2018-02-06T15:21:16.688Z,49.90
2018-02-06T15:23:44.554Z,49.60
2018-02-06T15:26:12.420Z,48.33
2018-02-06T15:28:40.183Z,48.05
2018-02-06T15:31:08.049Z,45.08
2018-02-06T15:33:36.117Z,54.33
2018-02-06T15:36:03.880Z,54.83
2018-02-06T15:38:31.643Z,50.83
2018-02-06T15:40:59.508Z,56.08
2018-02-06T15:43:27.375Z,53.20
2018-02-06T15:45:55.238Z,61.20
2018-02-06T15:48:23.001Z,60.40
2018-02-06T15:50:50.867Z,56.08
2018-02-06T15:53:18.630Z,55.05
2018-02-06T15:55:46.496Z,62.05
2018-02-06T15:58:14.361Z,55.00
2018-02-06T16:03:39.071Z,50.47
2018-02-06T16:06:06.939Z,47.55
2018-02-06T16:08:34.803Z,56.55
2018-02-06T16:11:02.565Z,56.58
2018-02-06T16:13:30.326Z,57.58
2018-02-06T16:15:58.090Z,53.38
2018-02-06T16:18:25.790Z,50.20
2018-02-06T16:20:54.291Z,53.50
2018-02-06T16:23:22.000Z,57.60
2018-02-06T16:25:49.691Z,122.25
2018-02-06T16:28:18.163Z,57.75
2018-02-06T16:30:45.863Z,61.37
2018-02-06T16:33:13.761Z,53.80
2018-02-06T16:35:41.475Z,62.38
2018-02-06T16:38:09.287Z,52.58
2018-02-06T16:40:37.153Z,58.05
2018-02-06T16:43:05.018Z,53.20
2018-02-06T16:45:32.883Z,56.17
2018-02-06T16:48:00.752Z,63.33
2018-02-06T16:50:28.617Z,62.85
2018-02-06T16:52:56.377Z,55.50
2018-02-06T16:55:24.063Z,57.67
2018-02-06T16:57:51.777Z,67.15
2018-02-06T17:00:19.515Z,62.17
2018-02-06T17:02:47.222Z,59.67
2018-02-06T17:05:14.935Z,62.50
2018-02-06T17:07:43.435Z,78.85
2018-02-06T17:10:11.140Z,66.55
2018-02-06T17:12:38.828Z,67.12
2018-02-06T17:15:07.375Z,53.25
2018-02-06T17:17:35.067Z,59.22
2018-02-06T17:20:03.540Z,65.30
2018-02-06T17:22:32.065Z,62.30
2018-02-06T17:24:59.775Z,77.12
2018-02-06T17:27:27.484Z,68.15
2018-02-06T17:29:55.231Z,79.72
2018-02-06T17:32:22.935Z,71.32
2018-02-06T17:34:50.687Z,73.65
2018-02-06T17:37:18.390Z,82.30
2018-02-06T17:39:46.107Z,100.47
2018-02-06T17:42:13.854Z,84.47
2018-02-06T17:44:41.540Z,73.80
2018-02-06T17:47:09.223Z,73.35
2018-02-06T17:49:36.987Z,70.60
2018-02-06T17:52:04.674Z,69.28
2018-02-06T17:54:33.143Z,67.45
2018-02-06T17:57:00.887Z,73.65
2018-02-06T17:59:28.647Z,91.15
2018-02-06T18:01:56.343Z,74.82
2018-02-06T18:04:24.822Z,68.95
2018-02-06T18:06:53.329Z,72.18
2018-02-06T18:09:21.060Z,81.53
2018-02-06T18:11:49.599Z,76.05
2018-02-06T18:14:17.302Z,75.72
2018-02-06T18:16:45.852Z,80.72
2018-02-06T18:19:13.626Z,76.97
2018-02-06T18:21:41.385Z,73.72
2018-02-06T18:24:09.197Z,76.55
2018-02-06T18:26:37.003Z,72.15
2018-02-06T18:29:04.728Z,75.50
2018-02-06T18:31:32.446Z,71.45
2018-02-06T18:34:00.951Z,78.43
2018-02-06T18:36:29.407Z,80.30
2018-02-06T18:38:57.175Z,81.22
2018-02-06T18:41:25.632Z,75.47
2018-02-06T18:43:53.357Z,75.05
2018-02-06T18:46:21.105Z,134.23
2018-02-06T18:48:48.787Z,101.72
2018-02-06T18:51:16.526Z,88.07
2018-02-06T18:53:44.270Z,91.45
2018-02-06T18:56:12.722Z,76.72
2018-02-06T18:58:40.427Z,95.15
2018-02-06T19:01:08.199Z,105.43
2018-02-06T19:03:35.951Z,89.55
2018-02-06T19:06:03.663Z,76.57
2018-02-06T19:08:31.420Z,72.00
2018-02-06T19:10:59.189Z,82.15
2018-02-06T19:13:26.907Z,81.30
2018-02-06T19:15:54.672Z,80.87
2018-02-06T19:18:22.387Z,158.10
2018-02-06T19:20:50.102Z,117.97
2018-02-06T19:23:17.832Z,116.82
2018-02-06T19:25:46.351Z,85.53
2018-02-06T19:28:14.144Z,84.43
2018-02-06T19:30:41.851Z,75.80
2018-02-06T19:33:10.387Z,82.12
2018-02-06T19:35:38.084Z,86.80
2018-02-06T19:38:06.543Z,81.22
2018-02-06T19:40:34.260Z,79.93
2018-02-06T19:43:02.000Z,93.82
2018-02-06T19:45:30.442Z,92.53
2018-02-06T19:47:58.175Z,103.80
2018-02-06T19:50:25.859Z,119.45
2018-02-06T19:52:53.576Z,78.78
2018-02-06T19:55:21.286Z,79.70
2018-02-06T19:57:48.995Z,71.82
2018-02-06T20:00:16.747Z,72.43
2018-02-06T20:02:45.199Z,78.75
2018-02-06T20:05:12.879Z,76.15
2018-02-06T20:07:41.390Z,74.90
2018-02-06T20:10:09.075Z,72.10
2018-02-06T20:12:36.760Z,70.15
2018-02-06T20:15:04.498Z,73.37
2018-02-06T20:17:32.186Z,76.05
2018-02-06T20:19:59.871Z,97.30
2018-02-06T20:22:28.378Z,117.85
2018-02-06T20:24:56.088Z,121.72
2018-02-06T20:27:23.888Z,103.12
2018-02-06T20:29:51.591Z,105.40
2018-02-06T20:32:19.302Z,78.78
2018-02-06T20:34:47.807Z,81.50
2018-02-06T20:37:15.511Z,78.07
2018-02-06T20:39:43.223Z,68.87
2018-02-06T20:42:10.966Z,70.78
2018-02-06T20:44:40.379Z,64.03
2018-02-06T20:47:08.059Z,63.90
2018-02-06T20:49:35.760Z,64.37
2018-02-06T20:52:03.453Z,58.67
2018-02-06T20:54:31.967Z,64.87
2018-02-06T20:57:00.549Z,82.47
2018-02-06T20:59:28.388Z,62.70
2018-02-06T21:01:56.150Z,63.35
2018-02-06T21:04:23.955Z,64.70
2018-02-06T21:06:51.667Z,66.85
2018-02-06T21:09:20.142Z,60.53
2018-02-06T21:11:48.591Z,67.25
2018-02-06T21:14:16.294Z,63.10
2018-02-06T21:16:44.027Z,69.85
2018-02-06T21:19:11.735Z,76.68
2018-02-06T21:21:39.503Z,70.28
2018-02-06T21:24:07.190Z,76.97
2018-02-06T21:26:34.876Z,71.20
2018-02-06T21:29:02.611Z,78.05
2018-02-06T21:31:30.296Z,75.90
2018-02-06T21:33:57.999Z,77.35
2018-02-06T21:36:25.704Z,74.72
2018-02-06T21:38:53.387Z,71.10
2018-02-06T21:41:21.134Z,76.72
2018-02-06T21:43:48.838Z,69.97
2018-02-06T21:46:16.523Z,81.45
2018-02-06T21:48:44.259Z,84.55
2018-02-06T21:51:12.707Z,78.72
2018-02-06T21:53:40.387Z,72.82
2018-02-06T21:56:08.898Z,76.47
2018-02-06T21:58:36.584Z,72.20
2018-02-06T22:01:04.285Z,76.43
2018-02-06T22:03:32.765Z,77.15
2018-02-06T22:06:01.279Z,70.20
2018-02-06T22:08:28.967Z,66.82
2018-02-06T22:10:56.666Z,61.33
2018-02-06T22:13:25.167Z,70.20
2018-02-06T22:15:52.918Z,76.00
2018-02-06T22:18:21.377Z,73.68
2018-02-06T22:20:49.099Z,81.18
2018-02-06T22:23:16.810Z,59.58
2018-02-06T22:25:45.318Z,65.15
2018-02-06T22:28:13.000Z,72.12
2018-02-06T22:30:40.763Z,63.85
2018-02-06T22:33:08.595Z,63.42
2018-02-06T22:35:37.072Z,70.90
2018-02-06T22:38:05.523Z,63.87
2018-02-06T22:40:33.251Z,58.58
2018-02-06T22:43:00.935Z,64.25
2018-02-06T22:45:28.619Z,67.32
2018-02-06T22:47:56.353Z,62.53
2018-02-06T22:50:24.031Z,68.47
2018-02-06T22:52:51.711Z,65.70
2018-02-06T22:55:20.214Z,76.93
2018-02-06T22:57:47.903Z,68.85
2018-02-06T23:00:30.454Z,72.25
2018-02-06T23:02:58.190Z,63.53
2018-02-06T23:05:26.635Z,65.37
2018-02-06T23:07:54.396Z,69.30
2018-02-06T23:10:22.200Z,62.13
2018-02-06T23:12:50.061Z,54.38
2018-02-06T23:15:17.867Z,54.72
2018-02-06T23:17:46.315Z,59.83
2018-02-06T23:20:14.013Z,52.50
2018-02-06T23:22:42.507Z,60.60
2018-02-06T23:25:10.211Z,60.47
2018-02-06T23:27:37.930Z,62.35
